Time;durP1;ratioP1;P1;durP2;ratioP2;P2;SDS_P1;SDS_P2;PMS_P1;PMS_P2;Temp;Humidity;BMP_temperature;BMP_pressure;BME280_temperature;BME280_humidity;BME280_pressure;Samples;Min_cycle;Max_cycle;Signal;HPM_P1;HPM_P2
2022/10/24 00:02:02;;;;;;;14.30;4.85;;;;;;;13.78;58.18;100554.81;5080590;28;20375;-67
2022/10/24 00:04:27;;;;;;;9.25;4.90;;;;;;;13.95;58.02;100545.03;5080717;28;20087;-67
2022/10/24 00:06:53;;;;;;;8.90;4.72;;;;;;;14.01;57.74;100547.88;5079534;28;20033;-68
2022/10/24 00:09:18;;;;;;;8.65;3.90;;;;;;;13.89;57.67;100537.69;5081282;28;20329;-67
2022/10/24 00:11:44;;;;;;;11.05;4.72;;;;;;;13.92;57.32;100543.53;5079581;28;20427;-67
2022/10/24 00:14:10;;;;;;;10.90;4.43;;;;;;;13.87;57.51;100550.34;5080256;28;20087;-67
2022/10/24 00:16:35;;;;;;;9.63;4.60;;;;;;;13.71;57.76;100544.00;5080627;28;20040;-67
2022/10/24 00:19:01;;;;;;;8.63;4.05;;;;;;;13.75;57.99;100544.50;5079898;28;20021;-68
2022/10/24 00:21:26;;;;;;;6.32;4.53;;;;;;;13.70;57.83;100545.00;5080034;28;20043;-67
2022/10/24 00:23:52;;;;;;;14.38;5.45;;;;;;;13.71;58.02;100541.31;5079270;28;20380;-67
2022/10/24 00:26:17;;;;;;;10.82;5.80;;;;;;;13.56;58.37;100540.28;5062838;28;20063;-67
2022/10/24 00:28:43;;;;;;;10.73;5.15;;;;;;;13.36;59.26;100534.38;5082637;28;20229;-67
2022/10/24 00:31:14;;;;;;;9.25;5.75;;;;;;;13.51;59.39;100541.75;5081024;28;20298;-67
2022/10/24 00:33:39;;;;;;;20.52;9.63;;;;;;;13.40;59.16;100532.22;5080334;28;20096;-67
2022/10/24 00:36:10;;;;;;;16.00;7.45;;;;;;;13.30;59.49;100518.22;5082418;28;20044;-67
2022/10/24 00:38:35;;;;;;;14.05;5.60;;;;;;;13.43;59.28;100524.75;5081240;28;20056;-67
2022/10/24 00:41:00;;;;;;;10.43;6.15;;;;;;;13.52;58.66;100530.94;5079407;28;20075;-67
2022/10/24 00:43:26;;;;;;;6.97;4.72;;;;;;;13.54;58.72;100528.16;5082809;28;20123;-67
2022/10/24 00:45:56;;;;;;;9.48;4.93;;;;;;;13.61;57.54;100530.00;5081365;28;20233;-67
2022/10/24 00:48:24;;;;;;;8.43;5.00;;;;;;;13.57;58.11;100541.97;5079836;28;20341;-67
2022/10/24 00:50:55;;;;;;;13.55;5.85;;;;;;;13.43;58.62;100527.41;5079923;28;20044;-67
2022/10/24 00:53:22;;;;;;;21.58;9.70;;;;;;;13.47;58.70;100533.25;5080396;28;20089;-67
2022/10/24 00:55:51;;;;;;;23.02;9.00;;;;;;;13.61;58.09;100537.16;5078967;28;20048;-68
2022/10/24 00:58:21;;;;;;;9.73;5.68;;;;;;;13.53;58.54;100531.81;5078902;28;20036;-67
2022/10/24 01:00:47;;;;;;;11.43;5.75;;;;;;;13.57;58.06;100533.97;5082079;28;20040;-67
2022/10/24 01:03:12;;;;;;;12.27;5.47;;;;;;;13.50;58.12;100524.94;5082030;28;20043;-68
2022/10/24 01:06:04;;;;;;;8.07;4.88;;;;;;;13.39;59.19;100525.25;5078692;28;20317;-67
2022/10/24 01:08:49;;;;;;;10.50;4.70;;;;;;;13.55;58.07;100520.00;5079196;28;20078;-67
2022/10/24 01:11:51;;;;;;;9.00;4.57;;;;;;;13.50;58.16;100518.78;5060961;28;20058;-67
2022/10/24 01:14:43;;;;;;;8.45;4.95;;;;;;;13.47;57.92;100519.94;5076798;28;20024;-67
2022/10/24 01:17:19;;;;;;;8.63;4.65;;;;;;;13.37;57.51;100520.09;5071934;28;20040;-67
2022/10/24 01:20:06;;;;;;;12.30;4.60;;;;;;;13.24;57.53;100521.53;5081593;28;20024;-67
2022/10/24 01:22:46;;;;;;;7.35;4.70;;;;;;;13.18;57.94;100515.03;5061408;28;20079;-67
2022/10/24 01:25:37;;;;;;;9.27;5.05;;;;;;;13.24;58.28;100517.03;5073801;28;20055;-67
2022/10/24 01:28:17;;;;;;;11.10;5.80;;;;;;;13.24;58.98;100522.38;5078604;28;20043;-67
2022/10/24 01:30:47;;;;;;;11.27;5.50;;;;;;;13.16;58.67;100527.63;5079200;28;20121;-67
2022/10/24 01:33:37;;;;;;;12.48;5.45;;;;;;;13.18;57.87;100525.66;5080415;28;20230;-67
2022/10/24 01:36:33;;;;;;;9.48;5.13;;;;;;;12.95;57.28;100524.53;5070895;28;20047;-67
2022/10/24 01:39:04;;;;;;;10.48;5.10;;;;;;;12.78;58.45;100520.94;5077530;28;20322;-67
2022/10/24 01:41:32;;;;;;;13.68;5.15;;;;;;;12.81;59.11;100520.63;5077637;28;20036;-69
2022/10/24 01:44:28;;;;;;;9.35;5.10;;;;;;;12.91;59.28;100520.50;5080294;28;20034;-67
2022/10/24 01:47:00;;;;;;;12.45;4.90;;;;;;;12.92;58.62;100516.88;5081239;28;20045;-67
2022/10/24 01:49:31;;;;;;;9.40;5.15;;;;;;;12.74;58.30;100517.75;5077775;28;20039;-67
2022/10/24 01:52:01;;;;;;;9.77;4.95;;;;;;;12.55;58.86;100522.47;5075623;28;20158;-67
2022/10/24 01:54:28;;;;;;;12.63;6.03;;;;;;;12.52;60.42;100520.94;5077708;28;20051;-67
2022/10/24 01:56:54;;;;;;;17.83;6.22;;;;;;;12.43;62.18;100524.50;5078384;28;20099;-67
2022/10/24 01:59:28;;;;;;;12.88;6.63;;;;;;;12.71;61.22;100526.06;5079153;28;20024;-67
2022/10/24 02:02:14;;;;;;;10.48;4.82;;;;;;;12.72;61.21;100525.06;5077757;28;20139;-67
2022/10/24 02:04:49;;;;;;;10.75;4.30;;;;;;;12.82;61.27;100518.81;5077761;28;20039;-67
2022/10/24 02:07:17;;;;;;;7.95;5.05;;;;;;;12.87;61.10;100524.47;5075185;28;20376;-67
2022/10/24 02:09:45;;;;;;;6.90;4.43;;;;;;;12.78;61.18;100527.09;5080798;28;20036;-67
2022/10/24 02:12:14;;;;;;;7.57;4.32;;;;;;;12.83;61.05;100525.78;5080564;28;20020;-67
2022/10/24 02:14:46;;;;;;;6.75;4.28;;;;;;;12.90;61.43;100535.63;5080032;28;20056;-67
2022/10/24 02:17:11;;;;;;;7.90;3.78;;;;;;;12.86;61.14;100539.59;5080134;28;20028;-67
2022/10/24 02:19:37;;;;;;;9.07;4.07;;;;;;;12.87;60.84;100543.91;5077392;28;20340;-67
2022/10/24 02:22:17;;;;;;;8.90;4.18;;;;;;;12.97;61.08;100539.31;5078251;28;20086;-67
2022/10/24 02:24:43;;;;;;;7.18;3.75;;;;;;;13.04;60.45;100539.53;5078459;28;20056;-67
2022/10/24 02:27:08;;;;;;;7.13;4.28;;;;;;;13.11;60.18;100541.38;5080449;28;20277;-67
2022/10/24 02:29:50;;;;;;;9.68;4.15;;;;;;;13.18;59.80;100538.13;5078291;28;20036;-67
2022/10/24 02:32:28;;;;;;;6.90;4.05;;;;;;;13.20;59.59;100533.47;5078043;28;20048;-67
2022/10/24 02:34:54;;;;;;;8.65;4.20;;;;;;;13.20;59.54;100536.97;5078358;28;20076;-68
2022/10/24 02:37:23;;;;;;;6.90;4.13;;;;;;;13.23;59.84;100541.13;5077045;28;20051;-67
2022/10/24 02:39:50;;;;;;;8.18;3.72;;;;;;;13.25;59.49;100534.66;5080772;28;20094;-67
2022/10/24 02:42:16;;;;;;;7.63;4.10;;;;;;;13.23;59.69;100541.13;5079456;28;20037;-67
2022/10/24 02:44:46;;;;;;;12.05;3.83;;;;;;;13.23;59.63;100533.16;5077863;28;20067;-67
2022/10/24 02:47:13;;;;;;;7.88;4.78;;;;;;;13.13;59.84;100541.22;5077149;28;20326;-67
2022/10/24 02:49:40;;;;;;;7.07;4.45;;;;;;;13.19;59.59;100539.78;5078675;28;20032;-67
2022/10/24 02:52:06;;;;;;;9.25;4.72;;;;;;;13.06;59.62;100543.69;5078451;28;20063;-67
2022/10/24 02:54:32;;;;;;;8.77;4.45;;;;;;;12.94;59.97;100539.63;5078304;28;20025;-67
2022/10/24 02:57:00;;;;;;;10.98;4.50;;;;;;;12.85;60.51;100539.75;5059545;28;20334;-67
2022/10/24 02:59:25;;;;;;;7.50;4.57;;;;;;;12.93;60.49;100539.78;5077110;28;20274;-68
2022/10/24 03:01:51;;;;;;;8.00;4.72;;;;;;;13.00;60.78;100538.16;5060916;28;20020;-67
2022/10/24 03:04:16;;;;;;;10.05;4.13;;;;;;;12.71;61.51;100530.53;5081721;28;20326;-67
2022/10/24 03:06:42;;;;;;;9.27;4.35;;;;;;;12.77;61.64;100541.38;5084214;28;20279;-70
2022/10/24 03:09:07;;;;;;;5.43;4.15;;;;;;;12.83;60.83;100529.28;5083504;28;20083;-69
2022/10/24 03:11:33;;;;;;;10.27;5.13;;;;;;;12.89;60.84;100533.13;5081131;28;20048;-67
2022/10/24 03:13:58;;;;;;;8.00;4.88;;;;;;;12.89;60.47;100541.09;5081127;28;20047;-67
2022/10/24 03:16:25;;;;;;;10.50;4.53;;;;;;;12.90;60.87;100542.78;5081201;28;20028;-67
2022/10/24 03:18:50;;;;;;;10.43;4.40;;;;;;;12.86;61.12;100541.41;5080867;28;20036;-69
2022/10/24 03:21:16;;;;;;;9.32;4.57;;;;;;;12.78;61.15;100539.53;5081941;28;20035;-69
2022/10/24 03:23:41;;;;;;;10.43;4.22;;;;;;;12.78;61.03;100542.19;5083674;28;20060;-69
2022/10/24 03:26:06;;;;;;;9.85;4.00;;;;;;;12.88;60.46;100536.78;5082360;28;20064;-69
2022/10/24 03:28:32;;;;;;;12.95;4.55;;;;;;;12.91;60.53;100541.78;5081584;28;20063;-69
2022/10/24 03:30:57;;;;;;;8.32;3.75;;;;;;;12.91;61.34;100542.63;5082820;28;20035;-70
2022/10/24 03:33:23;;;;;;;8.65;4.18;;;;;;;12.97;60.39;100541.16;5083692;28;20102;-69
2022/10/24 03:35:52;;;;;;;10.75;4.93;;;;;;;12.80;61.72;100534.91;5081472;28;20225;-69
2022/10/24 03:38:18;;;;;;;13.13;4.68;;;;;;;12.79;61.56;100542.03;5081144;28;20120;-69
2022/10/24 03:40:44;;;;;;;9.38;4.82;;;;;;;12.89;61.03;100533.97;5080508;28;20081;-69
2022/10/24 03:43:09;;;;;;;12.80;5.13;;;;;;;12.84;61.79;100530.09;5082079;28;20071;-69
2022/10/24 03:45:36;;;;;;;10.25;5.18;;;;;;;12.93;61.67;100540.63;5083372;28;20035;-69
2022/10/24 03:48:02;;;;;;;12.57;5.47;;;;;;;12.90;61.25;100537.44;5081503;28;20040;-68
2022/10/24 03:50:28;;;;;;;12.85;5.60;;;;;;;12.90;61.21;100540.13;5081393;28;20024;-69
2022/10/24 03:52:53;;;;;;;15.15;5.85;;;;;;;12.87;61.44;100546.56;5081432;28;20048;-69
2022/10/24 03:55:19;;;;;;;22.30;5.57;;;;;;;12.63;62.87;100530.47;5080976;28;20033;-69
2022/10/24 03:57:45;;;;;;;19.40;6.13;;;;;;;12.75;62.44;100526.56;5079972;28;20036;-69
2022/10/24 04:00:11;;;;;;;29.88;8.85;;;;;;;12.82;61.97;100529.44;5080583;28;20033;-69
2022/10/24 04:02:36;;;;;;;30.35;8.82;;;;;;;12.87;62.05;100529.78;5080644;28;20037;-69
2022/10/24 04:05:02;;;;;;;26.08;8.10;;;;;;;12.89;61.27;100520.66;5080390;28;20028;-69
2022/10/24 04:07:27;;;;;;;27.02;7.72;;;;;;;12.66;62.11;100516.88;5082147;28;20413;-69
2022/10/24 04:09:54;;;;;;;19.88;8.10;;;;;;;12.67;62.21;100522.03;5080619;28;20192;-69
2022/10/24 04:12:19;;;;;;;16.45;6.70;;;;;;;12.62;62.23;100519.03;5079831;28;20055;-69
2022/10/24 04:14:45;;;;;;;22.00;7.18;;;;;;;12.61;61.90;100517.34;5079732;28;20253;-69
2022/10/24 04:17:10;;;;;;;19.17;9.52;;;;;;;12.60;62.45;100520.16;5079299;28;20252;-69
2022/10/24 04:19:36;;;;;;;26.70;11.82;;;;;;;12.70;62.48;100528.88;5080686;28;20080;-69
2022/10/24 04:22:01;;;;;;;28.52;9.10;;;;;;;12.70;61.55;100528.88;5079106;28;20050;-69
2022/10/24 04:24:27;;;;;;;26.73;7.82;;;;;;;12.60;60.80;100522.81;5080658;28;20028;-69
2022/10/24 04:26:53;;;;;;;19.48;8.23;;;;;;;12.54;61.38;100526.09;5079354;28;20222;-69
2022/10/24 04:29:18;;;;;;;18.55;7.57;;;;;;;12.39;61.02;100523.16;5079708;28;20083;-68
2022/10/24 04:31:44;;;;;;;17.88;6.78;;;;;;;12.33;61.52;100535.22;5080387;28;20263;-69
2022/10/24 04:34:09;;;;;;;18.08;8.48;;;;;;;12.23;62.08;100533.63;5080300;28;20028;-68
2022/10/24 04:36:35;;;;;;;20.65;7.80;;;;;;;12.23;63.22;100533.63;5080770;28;20093;-68
2022/10/24 04:39:00;;;;;;;24.23;9.13;;;;;;;12.26;63.16;100536.81;5079341;28;20088;-68
2022/10/24 04:41:26;;;;;;;63.33;9.68;;;;;;;12.33;63.06;100537.88;5080415;28;20048;-69
2022/10/24 04:43:52;;;;;;;65.05;9.85;;;;;;;12.24;63.07;100530.81;5081664;28;20031;-69
2022/10/24 04:46:17;;;;;;;32.72;8.68;;;;;;;12.35;63.05;100533.25;5082388;28;20064;-68
2022/10/24 04:48:43;;;;;;;39.90;9.90;;;;;;;12.38;61.76;100524.13;5078946;28;20029;-69
2022/10/24 04:51:08;;;;;;;25.35;7.53;;;;;;;12.37;60.08;100530.44;5080143;28;20051;-68
2022/10/24 04:53:34;;;;;;;24.13;7.55;;;;;;;12.14;61.77;100533.56;5078817;28;20087;-68
2022/10/24 04:56:00;;;;;;;22.50;7.38;;;;;;;12.12;62.53;100526.75;5080039;28;20047;-68
2022/10/24 04:58:25;;;;;;;31.05;7.50;;;;;;;12.21;62.98;100539.09;5078791;28;20119;-68
2022/10/24 05:00:51;;;;;;;25.60;7.07;;;;;;;12.23;62.00;100521.19;5079412;28;20137;-68
2022/10/24 05:03:17;;;;;;;20.00;6.90;;;;;;;12.28;62.13;100526.88;5082105;28;20028;-68
2022/10/24 05:05:43;;;;;;;21.48;7.07;;;;;;;12.41;62.67;100537.09;5082210;28;20040;-68
2022/10/24 05:08:08;;;;;;;23.90;7.57;;;;;;;12.53;61.72;100535.91;5080999;28;20040;-68
2022/10/24 05:10:34;;;;;;;22.50;7.43;;;;;;;12.53;61.90;100527.09;5081917;28;20372;-68
2022/10/24 05:12:59;;;;;;;23.20;6.40;;;;;;;12.57;63.27;100528.44;5079386;28;20040;-68
2022/10/24 05:15:25;;;;;;;22.83;6.80;;;;;;;12.68;63.35;100536.16;5078211;28;20028;-68
2022/10/24 05:17:50;;;;;;;15.60;5.60;;;;;;;12.79;63.58;100538.56;5079252;28;20195;-68
2022/10/24 05:20:16;;;;;;;36.83;6.40;;;;;;;12.73;64.21;100545.34;5078410;28;20347;-68
2022/10/24 05:22:41;;;;;;;20.80;6.72;;;;;;;12.65;64.63;100541.78;5078401;28;20034;-68
2022/10/24 05:25:07;;;;;;;22.58;5.68;;;;;;;12.85;64.42;100553.03;5078609;28;20104;-68
2022/10/24 05:27:32;;;;;;;20.83;5.82;;;;;;;13.08;63.72;100552.34;5077742;28;20313;-68
2022/10/24 05:29:58;;;;;;;17.50;5.13;;;;;;;13.02;63.79;100560.13;5079253;28;20032;-68
2022/10/24 05:32:24;;;;;;;33.83;5.60;;;;;;;13.15;63.73;100557.84;5077847;28;20037;-68
2022/10/24 05:34:50;;;;;;;18.15;5.20;;;;;;;13.26;63.72;100554.94;5079470;28;20043;-68
2022/10/24 05:37:16;;;;;;;13.10;4.50;;;;;;;13.52;63.03;100554.88;5078306;28;20044;-68
2022/10/24 05:39:41;;;;;;;10.02;4.28;;;;;;;13.54;62.58;100547.59;5078347;28;20348;-68
2022/10/24 05:42:08;;;;;;;15.98;4.53;;;;;;;13.69;62.12;100561.13;5078826;28;20318;-69
2022/10/24 05:44:33;;;;;;;12.60;5.07;;;;;;;13.52;62.65;100565.53;5078108;28;20059;-67
2022/10/24 05:46:59;;;;;;;15.85;5.40;;;;;;;13.47;62.41;100567.00;5078830;28;20222;-67
2022/10/24 05:49:24;;;;;;;23.08;5.45;;;;;;;13.71;62.16;100567.13;5077746;28;20029;-67
2022/10/24 05:51:50;;;;;;;13.60;4.78;;;;;;;13.75;61.93;100565.78;5079122;28;20039;-68
2022/10/24 05:54:16;;;;;;;10.48;4.82;;;;;;;13.80;61.48;100566.13;5077705;28;20080;-67
2022/10/24 05:56:41;;;;;;;18.63;4.70;;;;;;;13.90;61.54;100568.66;5079019;28;20226;-69
2022/10/24 05:59:08;;;;;;;12.35;4.65;;;;;;;13.85;62.26;100555.84;5077730;28;20033;-68
2022/10/24 06:01:33;;;;;;;16.33;4.65;;;;;;;14.17;61.25;100568.34;5075275;28;20040;-67
2022/10/24 06:03:59;;;;;;;12.80;4.40;;;;;;;14.62;59.96;100567.91;5077671;28;20048;-67
2022/10/24 06:06:24;;;;;;;12.77;4.20;;;;;;;14.86;59.02;100574.22;5076538;28;20104;-67
2022/10/24 06:08:50;;;;;;;6.88;3.80;;;;;;;15.20;57.50;100566.78;5078380;28;20032;-67
2022/10/24 06:11:16;;;;;;;7.47;3.55;;;;;;;15.58;55.70;100567.84;5076830;28;20058;-67
2022/10/24 06:13:42;;;;;;;13.43;3.92;;;;;;;15.54;55.78;100573.66;5076841;28;20032;-67
2022/10/24 06:16:09;;;;;;;9.82;3.63;;;;;;;15.46;55.90;100573.69;5077556;28;20043;-67
2022/10/24 06:18:36;;;;;;;9.25;4.20;;;;;;;15.44;56.36;100575.72;5077369;28;20060;-67
2022/10/24 06:21:03;;;;;;;10.40;3.58;;;;;;;15.28;56.76;100579.28;5076543;28;20020;-68
2022/10/24 06:23:29;;;;;;;14.05;3.53;;;;;;;15.80;55.95;100578.75;5078953;28;20039;-68
2022/10/24 06:25:54;;;;;;;9.73;3.17;;;;;;;16.10;54.23;100577.91;5080997;28;20052;-68
2022/10/24 06:28:20;;;;;;;8.52;3.45;;;;;;;16.14;54.37;100576.53;5081130;28;20047;-68
2022/10/24 06:30:48;;;;;;;12.13;3.45;;;;;;;16.37;53.05;100573.84;5063227;28;20096;-68
2022/10/24 06:33:13;;;;;;;8.68;3.47;;;;;;;16.40;53.03;100578.00;5081157;28;20675;-68
2022/10/24 06:35:39;;;;;;;6.45;3.30;;;;;;;16.60;52.58;100582.69;5091449;28;20252;-68
2022/10/24 06:38:04;;;;;;;11.43;4.50;;;;;;;16.56;52.82;100576.03;5066125;28;20210;-67
2022/10/24 06:40:30;;;;;;;14.20;6.60;;;;;;;16.81;52.75;100582.06;5085235;28;20055;-68
2022/10/24 06:42:56;;;;;;;10.32;3.60;;;;;;;17.12;51.45;100583.75;5085386;28;20028;-68
2022/10/24 06:45:22;;;;;;;15.73;4.13;;;;;;;17.20;51.52;100580.97;5084802;28;20028;-68
2022/10/24 06:47:49;;;;;;;17.05;3.90;;;;;;;17.42;51.05;100587.25;5084542;28;20024;-68
2022/10/24 06:50:16;;;;;;;7.05;3.65;;;;;;;17.67;49.97;100585.94;5084847;28;20039;-68
2022/10/24 06:52:41;;;;;;;12.25;3.70;;;;;;;17.78;49.31;100577.44;5084491;28;20066;-68
2022/10/24 06:55:07;;;;;;;13.15;3.53;;;;;;;17.88;49.52;100584.34;5084823;28;20024;-68
2022/10/24 06:57:33;;;;;;;6.43;3.47;;;;;;;17.79;49.84;100589.00;5084477;28;20052;-68
2022/10/24 06:59:58;;;;;;;10.80;3.63;;;;;;;17.99;49.56;100590.03;5084964;28;20547;-68
2022/10/24 07:02:24;;;;;;;13.90;3.13;;;;;;;18.17;48.48;100587.75;5084742;28;20278;-68
2022/10/24 07:04:49;;;;;;;8.57;3.30;;;;;;;18.26;48.46;100580.44;5085013;28;20078;-68
2022/10/24 07:07:18;;;;;;;8.98;4.50;;;;;;;18.39;48.67;100582.41;5084619;28;20238;-68
2022/10/24 07:09:44;;;;;;;21.67;5.45;;;;;;;18.34;48.49;100590.19;5084588;28;20055;-68
2022/10/24 07:12:10;;;;;;;17.70;5.07;;;;;;;18.49;48.57;100581.06;5084461;28;20041;-68
2022/10/24 07:14:36;;;;;;;12.75;4.72;;;;;;;18.70;48.24;100576.72;5084995;28;20294;-68
2022/10/24 07:17:01;;;;;;;9.90;4.22;;;;;;;18.88;47.60;100577.09;5084309;28;20020;-68
2022/10/24 07:19:27;;;;;;;15.18;4.93;;;;;;;19.03;47.04;100574.28;5084362;28;20047;-68
2022/10/24 07:21:52;;;;;;;12.05;5.03;;;;;;;18.81;47.78;100579.72;5082880;28;20034;-68
2022/10/24 07:24:20;;;;;;;10.38;4.20;;;;;;;18.95;47.64;100572.59;5084144;28;20253;-69
2022/10/24 07:26:45;;;;;;;11.20;3.85;;;;;;;19.02;47.42;100572.63;5084499;28;20087;-68
2022/10/24 07:29:11;;;;;;;9.50;3.72;;;;;;;19.16;47.15;100574.38;5084333;28;20028;-68
2022/10/24 07:31:36;;;;;;;5.65;3.10;;;;;;;19.20;46.70;100578.31;5083952;28;20032;-68
2022/10/24 07:34:04;;;;;;;11.43;3.60;;;;;;;19.12;46.82;100571.25;5084802;28;20028;-68
2022/10/24 07:36:29;;;;;;;11.77;3.45;;;;;;;18.50;48.16;100571.97;5083997;28;20036;-68
2022/10/24 07:38:56;;;;;;;7.57;3.75;;;;;;;18.70;48.34;100571.34;5084059;28;20043;-68
2022/10/24 07:41:23;;;;;;;10.45;3.33;;;;;;;18.91;47.97;100552.53;5084372;28;20184;-69
2022/10/24 07:43:49;;;;;;;16.15;4.00;;;;;;;18.95;48.29;100567.22;5084251;28;20032;-68
2022/10/24 07:46:16;;;;;;;10.10;3.75;;;;;;;19.14;47.39;100561.16;5083999;28;20044;-68
2022/10/24 07:48:41;;;;;;;9.73;3.92;;;;;;;19.20;47.59;100575.63;5078221;28;20036;-68
2022/10/24 07:51:09;;;;;;;12.85;4.97;;;;;;;19.34;47.26;100565.78;5077840;28;20043;-68
2022/10/24 07:53:35;;;;;;;6.72;3.35;;;;;;;19.47;46.60;100568.53;5078052;28;20031;-68
2022/10/24 07:56:00;;;;;;;7.20;3.75;;;;;;;19.21;46.84;100571.09;5077741;28;20052;-68
2022/10/24 07:58:27;;;;;;;8.35;3.70;;;;;;;19.04;47.00;100573.25;5079414;28;20052;-68
2022/10/24 08:00:52;;;;;;;7.47;3.42;;;;;;;19.25;47.08;100565.13;5078117;28;20055;-68
2022/10/24 08:03:18;;;;;;;8.20;3.30;;;;;;;19.48;46.76;100559.44;5077847;28;20020;-68
2022/10/24 08:05:47;;;;;;;12.23;3.63;;;;;;;19.30;47.66;100565.34;5078802;28;20032;-68
2022/10/24 08:08:12;;;;;;;6.22;3.47;;;;;;;19.35;47.01;100557.53;5079302;28;20385;-68
2022/10/24 08:10:38;;;;;;;6.60;3.80;;;;;;;19.70;46.53;100552.94;5077179;28;20054;-68
2022/10/24 08:13:04;;;;;;;9.88;3.70;;;;;;;19.78;46.38;100554.66;5078723;28;20039;-68
2022/10/24 08:15:29;;;;;;;8.95;4.28;;;;;;;19.48;46.71;100551.41;5076976;28;20040;-68
2022/10/24 08:17:55;;;;;;;12.70;4.85;;;;;;;19.52;46.91;100544.63;5078504;28;20032;-68
2022/10/24 08:20:23;;;;;;;8.65;4.40;;;;;;;19.85;46.01;100547.44;5077437;28;20104;-68
2022/10/24 08:22:48;;;;;;;9.60;4.00;;;;;;;19.86;46.05;100549.09;5079366;28;20058;-68
2022/10/24 08:25:14;;;;;;;7.50;4.32;;;;;;;19.93;46.03;100538.38;5078583;28;20039;-68
2022/10/24 08:27:41;;;;;;;12.75;3.95;;;;;;;20.12;45.44;100539.44;5077014;28;20048;-68
2022/10/24 08:30:07;;;;;;;13.43;4.32;;;;;;;20.01;46.05;100538.19;5059837;28;20032;-68
2022/10/24 08:32:34;;;;;;;11.52;4.95;;;;;;;20.08;45.22;100542.53;5077337;28;20099;-68
2022/10/24 08:34:59;;;;;;;14.18;4.90;;;;;;;20.03;45.70;100546.88;5077366;28;20067;-68
2022/10/24 08:37:25;;;;;;;12.32;4.47;;;;;;;20.38;44.68;100544.84;5077623;28;20344;-68
2022/10/24 08:39:54;;;;;;;16.45;4.25;;;;;;;20.52;43.66;100545.69;5076780;28;20084;-68
2022/10/24 08:42:22;;;;;;;5.43;3.75;;;;;;;20.65;43.43;100524.97;5077302;28;20445;-68
2022/10/24 08:44:48;;;;;;;11.75;4.53;;;;;;;20.78;43.62;100540.28;5078948;28;20123;-68
2022/10/24 08:47:31;;;;;;;9.82;4.40;;;;;;;20.83;43.18;100532.44;5076609;28;20314;-68
2022/10/24 08:50:23;;;;;;;7.95;4.28;;;;;;;20.88;43.01;100535.34;5076380;28;20024;-68
2022/10/24 08:53:20;;;;;;;9.75;4.30;;;;;;;20.72;42.99;100528.50;5074514;28;20033;-68
2022/10/24 08:55:54;;;;;;;12.60;5.32;;;;;;;20.78;43.74;100518.75;5076332;28;20335;-68
2022/10/24 08:58:25;;;;;;;14.00;5.15;;;;;;;20.95;42.96;100516.47;5077452;28;20229;-68
2022/10/24 09:00:53;;;;;;;11.85;5.13;;;;;;;20.80;43.28;100513.16;5076143;28;20043;-68
2022/10/24 09:03:34;;;;;;;10.13;3.88;;;;;;;21.01;43.15;100515.63;5077209;28;20032;-68
2022/10/24 09:06:05;;;;;;;16.33;4.32;;;;;;;21.14;43.22;100514.75;5076489;28;20033;-68
2022/10/24 09:08:57;;;;;;;21.80;5.03;;;;;;;21.37;42.71;100512.41;5059514;28;20260;-68
2022/10/24 09:11:36;;;;;;;6.78;3.05;;;;;;;21.30;41.30;100498.97;5075406;28;20041;-68
2022/10/24 09:14:10;;;;;;;11.60;3.30;;;;;;;21.08;41.89;100507.53;5076118;28;20274;-68
2022/10/24 09:16:38;;;;;;;13.68;3.30;;;;;;;21.23;41.53;100508.13;5076105;28;20044;-68
2022/10/24 09:19:04;;;;;;;6.70;3.42;;;;;;;21.04;41.84;100497.19;5076964;28;20073;-68
2022/10/24 09:21:30;;;;;;;10.77;3.35;;;;;;;21.24;41.07;100493.63;5076052;28;20117;-68
2022/10/24 09:23:55;;;;;;;8.75;3.22;;;;;;;21.17;41.23;100498.19;5077461;28;20247;-68
2022/10/24 09:26:29;;;;;;;8.50;3.20;;;;;;;21.15;41.15;100490.31;5076844;28;20043;-68
2022/10/24 09:28:55;;;;;;;7.03;3.25;;;;;;;21.16;41.58;100475.81;5075915;28;20032;-68
2022/10/24 09:31:23;;;;;;;9.50;3.92;;;;;;;21.25;42.10;100485.31;5075983;28;20078;-68
2022/10/24 09:33:51;;;;;;;12.57;3.78;;;;;;;21.32;42.25;100477.22;5076897;28;20241;-68
2022/10/24 09:36:19;;;;;;;11.07;3.40;;;;;;;21.40;41.56;100471.59;5075635;28;20099;-68
2022/10/24 09:38:47;;;;;;;7.88;3.50;;;;;;;21.30;42.20;100474.75;5077442;28;20040;-68
2022/10/24 09:41:27;;;;;;;8.02;3.05;;;;;;;21.34;41.80;100472.44;5075717;28;20040;-68
2022/10/24 09:43:55;;;;;;;9.27;3.40;;;;;;;21.27;41.71;100469.78;5075947;28;20059;-69
2022/10/24 09:46:34;;;;;;;11.05;3.40;;;;;;;21.20;42.09;100463.56;5075762;28;20036;-68
2022/10/24 09:49:21;;;;;;;7.97;2.90;;;;;;;21.33;41.42;100449.25;5075486;28;20028;-68
2022/10/24 09:52:07;;;;;;;8.68;3.60;;;;;;;21.37;41.92;100452.31;5075546;28;20107;-68
2022/10/24 09:54:35;;;;;;;9.93;3.20;;;;;;;21.45;41.56;100452.06;5075059;28;20037;-68
2022/10/24 09:57:09;;;;;;;9.13;3.08;;;;;;;21.56;41.74;100451.38;5074128;28;20196;-68
2022/10/24 09:59:43;;;;;;;9.50;3.50;;;;;;;21.49;42.23;100447.91;5074195;28;20032;-68
2022/10/24 10:02:21;;;;;;;8.43;4.93;;;;;;;21.54;42.17;100440.00;5076531;28;20464;-68
2022/10/24 10:05:01;;;;;;;8.52;3.20;;;;;;;21.44;42.57;100436.94;5076718;28;20104;-68
2022/10/24 10:07:34;;;;;;;11.63;3.17;;;;;;;21.59;41.62;100426.69;5076541;28;20777;-68
2022/10/24 10:10:23;;;;;;;11.75;3.25;;;;;;;21.73;41.14;100433.66;5076552;28;20044;-68
2022/10/24 10:13:14;;;;;;;9.77;2.85;;;;;;;21.98;40.52;100423.75;5075901;28;20214;-68
2022/10/24 10:15:47;;;;;;;9.68;2.83;;;;;;;21.77;40.80;100421.41;5071500;28;20071;-69
2022/10/24 10:18:19;;;;;;;11.82;2.97;;;;;;;21.93;40.74;100414.66;5074792;28;20337;-68
2022/10/24 10:20:45;;;;;;;8.48;3.67;;;;;;;21.86;40.49;100411.19;5076444;28;20340;-68
2022/10/24 10:23:27;;;;;;;10.55;3.70;;;;;;;22.01;40.68;100408.16;5074966;28;20032;-68
2022/10/24 10:26:07;;;;;;;7.65;2.90;;;;;;;22.02;40.48;100402.56;5075112;28;20040;-68
2022/10/24 10:28:35;;;;;;;9.05;3.65;;;;;;;21.94;40.71;100394.75;5075079;28;20036;-68
2022/10/24 10:31:01;;;;;;;10.43;3.10;;;;;;;21.95;40.58;100399.91;5075020;28;20226;-68
2022/10/24 10:33:41;;;;;;;9.85;3.50;;;;;;;22.15;40.40;100399.78;5076528;28;20043;-68
2022/10/24 10:36:16;;;;;;;8.10;3.22;;;;;;;22.04;40.60;100395.09;5075987;28;20048;-68
2022/10/24 10:39:07;;;;;;;11.80;3.40;;;;;;;22.17;40.14;100394.16;5058435;28;20219;-68
2022/10/24 10:41:44;;;;;;;9.90;2.90;;;;;;;22.11;40.26;100386.94;5075110;28;20289;-68
2022/10/24 10:44:30;;;;;;;7.45;3.00;;;;;;;22.05;40.29;100380.56;5075571;28;20036;-68
2022/10/24 10:47:17;;;;;;;8.45;3.30;;;;;;;22.08;40.68;100380.13;5075345;28;20326;-68
2022/10/24 10:49:45;;;;;;;16.38;3.88;;;;;;;21.99;41.25;100365.25;5074654;28;20031;-68
2022/10/24 10:52:12;;;;;;;10.48;3.65;;;;;;;22.10;41.55;100372.63;5074534;28;20040;-68
2022/10/24 10:54:56;;;;;;;11.68;3.58;;;;;;;22.09;41.08;100371.00;5074800;28;20041;-68
2022/10/24 10:57:30;;;;;;;7.93;2.88;;;;;;;22.23;41.06;100369.81;5075720;28;20264;-68
2022/10/24 10:59:58;;;;;;;11.00;3.33;;;;;;;22.26;41.02;100363.16;5076432;28;20078;-68
2022/10/24 11:02:38;;;;;;;10.48;3.28;;;;;;;22.15;41.62;100355.78;5074616;28;20048;-68
2022/10/24 11:05:39;;;;;;;11.57;3.40;;;;;;;22.32;40.18;100353.34;5074143;28;20069;-69
2022/10/24 11:08:13;;;;;;;7.70;3.10;;;;;;;22.44;39.87;100340.75;5014282;28;20046;-68
2022/10/24 11:10:42;;;;;;;;;;;;;;;22.26;40.57;100350.47;5066275;28;20056;-69
2022/10/24 11:13:16;;;;;;;8.88;3.30;;;;;;;22.61;39.52;100337.22;5074743;28;19947;-68
2022/10/24 11:15:48;;;;;;;10.65;3.63;;;;;;;22.38;40.58;100326.28;5074648;28;20036;-68
2022/10/24 11:18:21;;;;;;;11.05;3.15;;;;;;;22.33;40.67;100339.63;5074092;28;20032;-68
2022/10/24 11:20:52;;;;;;;11.20;3.53;;;;;;;22.32;40.96;100342.53;5076313;28;20044;-68
2022/10/24 11:23:28;;;;;;;10.82;3.10;;;;;;;22.44;40.19;100335.34;5076984;28;20310;-68
2022/10/24 11:26:33;;;;;;;9.35;3.10;;;;;;;22.62;39.53;100335.34;5078089;28;20326;-68
2022/10/24 11:29:14;;;;;;;10.38;3.22;;;;;;;22.66;39.34;100339.22;5077359;28;20036;-68
2022/10/24 11:31:45;;;;;;;16.55;2.97;;;;;;;22.65;39.55;100325.97;5078207;28;20072;-68
2022/10/24 11:34:23;;;;;;;16.17;3.50;;;;;;;22.54;40.10;100320.28;5079208;28;20369;-68